Aeroporto :
LOGIN :

Iscrizione | Disclaimer

   EN    FR    IT 

 










Sommario :    VFR   VFR Marginale   IFR   IFR Intensivo   IFR Molto Intensivo
Visibilità : 
Base nubi : 
>= 8 km
>= 3000ft
5 / 8 km
1000 / 3000 ft
1500m / 5 km
500 / 1000 ft
800 / 1500m
200 / 500 ft
< 800m
< 200 ft
Simboli :   Temporali  Nebbia  Neve Forte  Precipitazioni Forti  Vento > 20 kt
SIGMETs :   Varie  Temporali  Ghiacco  Turbolenza  Onda orograficha  Ceneri Vulcaniche






- Altitudine del aeroporto : 170 ft
- Codice IATA : KRP


EKKA - Karup

ULTIMO METAR :
  • 031950Z AUTO 23007KT 9999 FEW022/// FEW030/// SCT044/// 03/M01 Q1014

METARs OBSOLETI :
  • 031920Z AUTO 24007KT 9999 FEW039/// FEW049/// 03/M01 Q1014
  • 031850Z AUTO 25007KT 9999 FEW045/// FEW100/// 03/M01 Q1013
  • 031820Z AUTO 27006KT 9999 NCD 03/M02 Q1013
  • 031750Z AUTO 29008KT 9999 NCD 03/M02 Q1013
  • 031720Z AUTO 29011KT 9999 FEW028/// 05/M01 Q1012

TAF TAF EKKA
Valido dal 03 a 18 ore il 04 a 18 ore UTC


031716Z 0318/0418 28012KT 9999 SCT030
TEMPO 0318/0409 4000 -SHRASNGS SCT020CB
BECMG 0319/0322 23005KT
BECMG 0406/0409 22012KT
TEMPO 0409/0416 -SHRA BKN010 SCT020CB



MetMap, La meteo Aeronautica in un colpo d'occhio ! - Copyright ORBIFLY Dicembre 2007 - Disclaimer

ORBIFLY MET'MAP TEAM :

Programmazione e sviluppo : Alexandra Zaïnal
Concezione : Baudouin d'Aumeries
Aiuto per la programmazione : Marc-Olivier Méhu
Supporto tecnico e logistico : Manuel Goepfert
Aiuto per la traduzione : Arnaldo La Scala

Contatto : metmap@orbifly.com




FONTI E CREDITI :

   NOAA